Terminal Aerodrome Forecast
Issued by NWS

Home | Current Version | Previous Version | Text Only | Print | Product List | Glossary On
Versions: 1 2 3 4 5 6 7 8 9 10 11 12 13 14 15 16 17
000
FTUS45 KABQ 241728
TAFROW
TAF
KROW 241728Z 2418/2518 20007KT P6SM SKC
     FM242000 22012G20KT P6SM SKC
     FM250200 23009KT P6SM SCT150
     FM250800 34006KT P6SM SCT200=

USA.gov is the U.S. government's official web portal to all federal, state and local government web resources and services.